createdAt,value
2017-09-12T00:01:58.026Z,46.40
2017-09-12T00:04:24.198Z,46.30
2017-09-12T00:06:50.346Z,46.30
2017-09-12T00:09:16.507Z,46.30
2017-09-12T00:11:42.650Z,46.30
2017-09-12T00:14:08.798Z,46.30
2017-09-12T00:16:35.682Z,46.20
2017-09-12T00:19:01.817Z,46.20
2017-09-12T00:21:27.979Z,46.20
2017-09-12T00:23:54.586Z,46.30
2017-09-12T00:26:21.497Z,46.70
2017-09-12T00:28:48.371Z,46.90
2017-09-12T00:31:14.522Z,46.90
2017-09-12T00:33:40.712Z,46.90
2017-09-12T00:36:06.902Z,47.90
2017-09-12T00:38:33.051Z,47.10
2017-09-12T00:40:59.226Z,47.20
2017-09-12T00:43:25.370Z,47.30
2017-09-12T00:45:51.511Z,47.30
2017-09-12T00:48:17.667Z,47.20
2017-09-12T00:50:43.810Z,47.30
2017-09-12T00:53:10.019Z,47.30
2017-09-12T00:55:36.182Z,47.50
2017-09-12T00:58:02.359Z,47.70
2017-09-12T01:00:28.518Z,47.50
2017-09-12T01:02:54.666Z,47.50
2017-09-12T01:05:20.810Z,47.60
2017-09-12T01:07:46.979Z,47.60
2017-09-12T01:10:13.154Z,47.70
2017-09-12T01:12:39.321Z,47.80
2017-09-12T01:15:05.472Z,48.00
2017-09-12T01:17:34.944Z,48.20
2017-09-12T01:20:01.139Z,48.20
2017-09-12T01:22:27.356Z,48.20
2017-09-12T01:24:53.514Z,48.20
2017-09-12T01:27:19.700Z,48.20
2017-09-12T01:29:46.578Z,48.70
2017-09-12T01:32:12.715Z,48.60
2017-09-12T01:34:38.866Z,48.50
2017-09-12T01:37:05.008Z,48.50
2017-09-12T01:39:31.143Z,48.50
2017-09-12T01:41:57.283Z,48.70
2017-09-12T01:44:24.178Z,48.80
2017-09-12T01:46:50.314Z,48.90
2017-09-12T01:49:16.508Z,48.80
2017-09-12T01:51:42.627Z,49.10
2017-09-12T01:54:08.754Z,49.10
2017-09-12T01:56:34.894Z,49.30
2017-09-12T01:59:01.056Z,49.30
2017-09-12T02:01:27.182Z,49.40
2017-09-12T02:03:53.313Z,49.50
2017-09-12T02:06:19.461Z,49.80
2017-09-12T02:08:45.598Z,49.70
2017-09-12T02:11:11.747Z,49.60
2017-09-12T02:13:37.938Z,49.80
2017-09-12T02:16:04.066Z,49.70
2017-09-12T02:18:30.175Z,49.90
2017-09-12T02:20:57.048Z,50.00
2017-09-12T02:23:23.164Z,49.80
2017-09-12T02:25:49.307Z,49.80
2017-09-12T02:28:15.423Z,49.80
2017-09-12T02:30:41.670Z,49.70
2017-09-12T02:33:07.848Z,49.70
2017-09-12T02:35:34.012Z,49.80
2017-09-12T02:38:00.146Z,50.50
2017-09-12T02:40:26.324Z,50.20
2017-09-12T02:42:52.450Z,49.70
2017-09-12T02:45:18.559Z,49.80
2017-09-12T02:47:44.715Z,49.90
2017-09-12T02:50:11.680Z,50.10
2017-09-12T02:52:37.843Z,50.10
2017-09-12T02:55:04.003Z,51.00
2017-09-12T02:57:30.151Z,50.20
2017-09-12T02:59:56.304Z,50.40
2017-09-12T03:02:23.199Z,50.60
2017-09-12T03:04:49.456Z,50.60
2017-09-12T03:07:15.610Z,50.70
2017-09-12T03:09:41.758Z,50.40
2017-09-12T03:12:07.920Z,50.70
2017-09-12T03:14:34.055Z,50.70
2017-09-12T03:17:00.203Z,50.70
2017-09-12T03:19:26.422Z,50.80
2017-09-12T03:21:52.632Z,50.80
2017-09-12T03:24:19.510Z,50.70
2017-09-12T03:26:45.634Z,50.80
2017-09-12T03:29:11.796Z,50.90
2017-09-12T03:31:37.926Z,51.00
2017-09-12T03:34:04.124Z,51.00
2017-09-12T03:36:30.268Z,51.10
2017-09-12T03:38:56.430Z,51.20
2017-09-12T03:41:23.324Z,51.30
2017-09-12T03:43:49.488Z,51.30
2017-09-12T03:46:15.637Z,51.40
2017-09-12T03:48:41.819Z,51.40
2017-09-12T03:51:07.942Z,51.40
2017-09-12T03:53:34.095Z,51.40
2017-09-12T03:56:00.273Z,51.40
2017-09-12T03:58:26.404Z,51.50
2017-09-12T04:00:52.554Z,51.40
2017-09-12T04:03:18.706Z,51.60
2017-09-12T04:05:44.910Z,51.40
2017-09-12T04:08:11.031Z,51.60
2017-09-12T04:10:37.224Z,51.60
2017-09-12T04:13:03.370Z,51.70
2017-09-12T04:15:29.538Z,51.90
2017-09-12T04:17:55.670Z,51.70
2017-09-12T04:20:21.875Z,51.80
2017-09-12T04:22:48.068Z,51.60
2017-09-12T04:25:14.965Z,51.80
2017-09-12T04:27:41.150Z,51.80
2017-09-12T04:30:07.310Z,51.80
2017-09-12T04:32:33.458Z,51.80
2017-09-12T04:34:59.603Z,51.80
2017-09-12T04:37:25.799Z,51.80
2017-09-12T04:39:51.942Z,52.00
2017-09-12T04:42:18.116Z,51.90
2017-09-12T04:44:44.352Z,51.90
2017-09-12T04:47:10.503Z,52.10
2017-09-12T04:49:36.651Z,52.10
2017-09-12T04:52:02.807Z,52.10
2017-09-12T04:54:29.023Z,52.20
2017-09-12T04:56:55.190Z,52.40
2017-09-12T04:59:21.344Z,52.00
2017-09-12T05:01:47.480Z,52.40
2017-09-12T05:04:13.602Z,52.20
2017-09-12T05:06:40.427Z,52.30
2017-09-12T05:09:06.590Z,52.40
2017-09-12T05:11:32.766Z,52.30
2017-09-12T05:13:58.921Z,52.40
2017-09-12T05:16:27.096Z,52.40
2017-09-12T05:18:54.006Z,52.20
2017-09-12T05:21:20.122Z,52.20
2017-09-12T05:23:46.266Z,52.40
2017-09-12T05:26:13.151Z,52.10
2017-09-12T05:28:39.295Z,52.20
2017-09-12T05:31:06.163Z,52.20
2017-09-12T05:33:32.294Z,52.10
2017-09-12T05:35:58.435Z,52.30
2017-09-12T05:38:24.607Z,52.30
2017-09-12T05:40:50.710Z,52.20
2017-09-12T05:43:16.900Z,52.20
2017-09-12T05:45:43.027Z,52.30
2017-09-12T05:48:09.180Z,53.60
2017-09-12T05:50:35.307Z,54.60
2017-09-12T05:53:01.458Z,55.50
2017-09-12T05:55:27.669Z,55.60
2017-09-12T05:57:53.797Z,55.50
2017-09-12T06:00:19.915Z,55.60
2017-09-12T06:02:46.048Z,55.60
2017-09-12T06:05:12.165Z,55.50
2017-09-12T06:07:38.295Z,55.20
2017-09-12T06:10:05.194Z,54.70
2017-09-12T06:12:31.318Z,54.70
2017-09-12T06:14:57.471Z,54.50
2017-09-12T06:17:23.607Z,54.20
2017-09-12T06:19:49.773Z,53.80
2017-09-12T06:22:16.637Z,54.20
2017-09-12T06:24:42.784Z,54.20
2017-09-12T06:27:08.915Z,55.90
2017-09-12T06:29:35.063Z,55.90
2017-09-12T06:32:01.202Z,55.90
2017-09-12T06:34:27.379Z,56.60
2017-09-12T06:36:53.544Z,55.80
2017-09-12T06:39:19.711Z,55.90
2017-09-12T06:41:45.841Z,55.90
2017-09-12T06:44:11.994Z,55.90
2017-09-12T06:46:38.143Z,56.00
2017-09-12T06:49:04.315Z,56.10
2017-09-12T06:51:30.463Z,56.20
2017-09-12T06:53:56.601Z,55.20
2017-09-12T06:56:22.769Z,55.10
2017-09-12T06:58:49.702Z,54.30
2017-09-12T07:01:16.590Z,54.20
2017-09-12T07:03:42.747Z,54.20
2017-09-12T07:06:09.641Z,53.50
2017-09-12T07:08:35.830Z,53.40
2017-09-12T07:11:02.022Z,53.10
2017-09-12T07:13:28.190Z,52.90
2017-09-12T07:15:54.346Z,52.50
2017-09-12T07:18:20.476Z,52.20
2017-09-12T07:20:46.626Z,51.60
2017-09-12T07:23:12.778Z,51.50
2017-09-12T07:25:38.974Z,51.30
2017-09-12T07:28:05.122Z,51.50
2017-09-12T07:30:31.248Z,50.80
2017-09-12T07:32:57.423Z,51.00
2017-09-12T07:35:23.558Z,50.40
2017-09-12T07:37:49.730Z,50.70
2017-09-12T07:40:15.857Z,50.60
2017-09-12T07:42:42.007Z,50.40
2017-09-12T07:45:08.191Z,50.10
2017-09-12T07:47:34.334Z,50.20
2017-09-12T07:50:00.442Z,49.60
2017-09-12T07:52:26.593Z,49.80
2017-09-12T07:54:52.722Z,49.80
2017-09-12T07:57:18.911Z,49.40
2017-09-12T07:59:45.814Z,48.80
2017-09-12T08:02:11.971Z,48.70
2017-09-12T08:04:38.102Z,48.20
2017-09-12T08:07:04.253Z,47.90
2017-09-12T08:09:30.379Z,48.40
2017-09-12T08:11:56.499Z,48.00
2017-09-12T08:14:22.636Z,48.60
2017-09-12T08:16:48.764Z,48.00
2017-09-12T08:19:14.929Z,48.00
2017-09-12T08:21:41.074Z,48.30
2017-09-12T08:24:07.218Z,47.80
2017-09-12T08:26:33.326Z,47.70
2017-09-12T08:28:59.470Z,47.80
2017-09-12T08:31:26.394Z,48.10
2017-09-12T08:33:52.524Z,47.90
2017-09-12T08:36:19.434Z,48.30
2017-09-12T08:38:45.574Z,48.30
2017-09-12T08:41:11.722Z,48.60
2017-09-12T08:43:37.879Z,48.00
2017-09-12T08:46:04.746Z,48.00
2017-09-12T08:48:30.873Z,48.00
2017-09-12T08:51:02.295Z,48.00
2017-09-12T08:53:28.415Z,47.90
2017-09-12T08:55:55.302Z,47.90
2017-09-12T08:58:21.430Z,47.90
2017-09-12T09:00:47.582Z,48.00
2017-09-12T09:03:13.704Z,48.00
2017-09-12T09:05:39.853Z,48.10
2017-09-12T09:08:05.970Z,47.60
2017-09-12T09:10:32.135Z,47.70
2017-09-12T09:12:58.267Z,47.80
2017-09-12T09:15:25.154Z,48.30
2017-09-12T09:17:54.348Z,48.10
2017-09-12T09:20:22.178Z,48.10
2017-09-12T09:22:54.858Z,48.10
2017-09-12T09:25:22.389Z,47.50
2017-09-12T09:27:48.519Z,46.60
2017-09-12T09:30:14.684Z,46.20
2017-09-12T09:32:40.830Z,46.60
2017-09-12T09:35:06.976Z,46.40
2017-09-12T09:37:33.123Z,46.10
2017-09-12T09:39:59.312Z,45.80
2017-09-12T09:42:26.218Z,44.70
2017-09-12T09:44:52.354Z,44.70
2017-09-12T09:47:19.272Z,44.20
2017-09-12T09:49:47.734Z,44.10
2017-09-12T09:52:21.481Z,44.00
2017-09-12T09:54:47.679Z,43.80
2017-09-12T09:57:13.870Z,43.10
2017-09-12T09:59:40.781Z,43.20
2017-09-12T10:02:06.963Z,43.20
2017-09-12T10:04:33.114Z,43.70
2017-09-12T10:06:59.998Z,44.10
2017-09-12T10:09:26.143Z,44.10
2017-09-12T10:11:52.288Z,44.40
2017-09-12T10:14:18.515Z,44.30
2017-09-12T10:16:44.641Z,44.70
2017-09-12T10:19:10.767Z,43.60
2017-09-12T10:21:36.886Z,43.20
2017-09-12T10:24:03.055Z,43.10
2017-09-12T10:26:29.181Z,42.90
2017-09-12T10:28:55.314Z,42.00
2017-09-12T10:31:22.268Z,42.10
2017-09-12T10:33:48.427Z,43.10
2017-09-12T10:36:14.567Z,44.10
2017-09-12T10:38:40.702Z,43.50
2017-09-12T10:41:07.562Z,43.20
2017-09-12T10:43:33.759Z,43.20
2017-09-12T10:45:59.886Z,43.90
2017-09-12T10:48:26.022Z,44.90
2017-09-12T10:50:52.154Z,45.30
2017-09-12T10:53:18.271Z,48.20
2017-09-12T10:55:44.426Z,48.70
2017-09-12T10:58:10.582Z,50.30
2017-09-12T11:00:36.736Z,51.60
2017-09-12T11:03:03.663Z,51.20
2017-09-12T11:05:30.539Z,52.20
2017-09-12T11:07:56.674Z,52.10
2017-09-12T11:10:23.052Z,51.90
2017-09-12T11:12:49.314Z,51.40
2017-09-12T11:15:15.483Z,48.80
2017-09-12T11:17:41.612Z,49.80
2017-09-12T11:20:07.774Z,49.00
2017-09-12T11:22:34.666Z,49.00
2017-09-12T11:25:00.831Z,49.00
2017-09-12T11:27:26.930Z,49.00
2017-09-12T11:29:53.064Z,49.00
2017-09-12T11:32:19.223Z,49.30
2017-09-12T11:34:45.353Z,46.50
2017-09-12T11:37:11.502Z,46.90
2017-09-12T11:39:37.662Z,47.40
2017-09-12T11:42:03.791Z,51.10
2017-09-12T11:44:30.712Z,57.40
2017-09-12T11:46:56.842Z,57.30
2017-09-12T11:49:23.736Z,60.20
2017-09-12T11:51:50.000Z,60.20
2017-09-12T11:54:16.148Z,60.30
2017-09-12T11:56:42.307Z,60.60
2017-09-12T11:59:09.188Z,63.80
2017-09-12T12:01:35.411Z,64.10
2017-09-12T12:04:01.546Z,62.30
2017-09-12T12:06:27.666Z,62.70
2017-09-12T12:08:54.538Z,60.20
2017-09-12T12:11:20.671Z,60.20
2017-09-12T12:13:46.802Z,61.00
2017-09-12T12:16:12.930Z,58.20
2017-09-12T12:18:39.872Z,55.70
2017-09-12T12:21:06.023Z,55.70
2017-09-12T12:23:32.130Z,52.80
2017-09-12T12:25:58.241Z,52.10
2017-09-12T12:28:24.386Z,51.00
2017-09-12T12:30:50.518Z,52.10
2017-09-12T12:33:17.387Z,52.50
2017-09-12T12:35:43.491Z,52.40
2017-09-12T12:38:09.615Z,49.90
2017-09-12T12:40:35.762Z,52.50
2017-09-12T12:43:02.142Z,51.00
2017-09-12T12:45:28.266Z,51.40
2017-09-12T12:47:54.394Z,51.50
2017-09-12T12:50:20.531Z,50.40
2017-09-12T12:52:47.427Z,49.50
2017-09-12T12:55:13.551Z,49.50
2017-09-12T12:57:39.698Z,49.80
2017-09-12T13:00:05.815Z,50.00
2017-09-12T13:02:31.962Z,50.80
2017-09-12T13:04:58.094Z,49.50
2017-09-12T13:07:24.218Z,51.00
2017-09-12T13:09:51.154Z,50.60
2017-09-12T13:12:18.047Z,49.50
2017-09-12T13:14:44.209Z,49.70
2017-09-12T13:17:11.531Z,51.30
2017-09-12T13:19:38.438Z,51.40
2017-09-12T13:22:04.539Z,51.30
2017-09-12T13:24:30.706Z,51.10
2017-09-12T13:26:56.818Z,51.40
2017-09-12T13:29:22.978Z,50.20
2017-09-12T13:31:49.138Z,49.10
2017-09-12T13:34:15.259Z,49.60
2017-09-12T13:36:41.462Z,48.10
2017-09-12T13:39:07.603Z,49.10
2017-09-12T13:41:33.743Z,49.20
2017-09-12T13:43:59.860Z,48.20
2017-09-12T13:46:25.999Z,48.00
2017-09-12T13:48:52.125Z,48.10
2017-09-12T13:51:18.272Z,47.80
2017-09-12T13:53:44.409Z,48.20
2017-09-12T13:56:10.546Z,47.50
2017-09-12T13:58:36.667Z,47.50
2017-09-12T14:01:07.121Z,47.70
2017-09-12T14:03:33.371Z,48.10
2017-09-12T14:06:00.257Z,47.00
2017-09-12T14:08:26.383Z,47.00
2017-09-12T14:10:52.546Z,47.40
2017-09-12T14:13:18.658Z,46.80
2017-09-12T14:15:46.343Z,46.30
2017-09-12T14:18:12.514Z,46.80
2017-09-12T14:20:38.630Z,45.90
2017-09-12T14:23:04.771Z,44.50
2017-09-12T14:25:30.891Z,45.00
2017-09-12T14:27:57.028Z,43.60
2017-09-12T14:30:23.922Z,41.70
2017-09-12T14:32:50.118Z,41.80
2017-09-12T14:35:16.262Z,42.50
2017-09-12T14:37:42.425Z,42.70
2017-09-12T14:40:08.566Z,42.60
2017-09-12T14:42:34.754Z,42.20
2017-09-12T14:45:00.931Z,42.10
2017-09-12T14:47:27.079Z,42.60
2017-09-12T14:49:53.232Z,42.70
2017-09-12T14:52:19.386Z,43.70
2017-09-12T14:54:45.559Z,42.20
2017-09-12T14:57:11.758Z,40.90
2017-09-12T14:59:37.919Z,41.00
2017-09-12T15:02:04.794Z,41.00
2017-09-12T15:04:30.966Z,41.00
2017-09-12T15:06:57.127Z,40.00
2017-09-12T15:09:23.271Z,40.70
2017-09-12T15:11:49.386Z,40.30
2017-09-12T15:14:15.528Z,41.20
2017-09-12T15:16:41.655Z,40.00
2017-09-12T15:19:07.783Z,40.00
2017-09-12T15:21:33.913Z,40.00
2017-09-12T15:24:00.051Z,40.10
2017-09-12T15:26:26.179Z,40.00
2017-09-12T15:28:52.315Z,40.40
2017-09-12T15:31:18.434Z,41.00
2017-09-12T15:33:44.575Z,41.00
2017-09-12T15:36:10.690Z,41.00
2017-09-12T15:38:36.803Z,40.10
2017-09-12T15:41:03.687Z,40.20
2017-09-12T15:43:29.844Z,40.10
2017-09-12T15:45:55.967Z,39.80
2017-09-12T15:48:22.098Z,38.30
2017-09-12T15:50:48.227Z,39.90
2017-09-12T15:53:14.351Z,40.00
2017-09-12T15:55:40.479Z,40.00
2017-09-12T15:58:06.587Z,39.90
2017-09-12T16:00:32.722Z,40.10
2017-09-12T16:02:59.587Z,40.90
2017-09-12T16:05:25.723Z,40.90
2017-09-12T16:07:52.038Z,41.00
2017-09-12T16:10:18.615Z,41.10
2017-09-12T16:12:45.869Z,42.50
2017-09-12T16:15:12.030Z,42.50
2017-09-12T16:17:38.176Z,46.30
2017-09-12T16:20:04.327Z,50.40
2017-09-12T16:22:30.485Z,52.80
2017-09-12T16:24:56.603Z,53.00
2017-09-12T16:27:22.756Z,52.70
2017-09-12T16:29:48.891Z,52.00
2017-09-12T16:32:15.040Z,57.10
2017-09-12T16:34:41.191Z,58.50
2017-09-12T16:37:07.337Z,54.90
2017-09-12T16:39:33.465Z,58.20
2017-09-12T16:42:00.362Z,60.60
2017-09-12T16:44:26.498Z,60.60
2017-09-12T16:46:52.659Z,61.40
2017-09-12T16:49:18.806Z,62.00
2017-09-12T16:51:45.010Z,59.60
2017-09-12T16:54:24.860Z,60.80
2017-09-12T16:56:52.086Z,60.10
2017-09-12T16:59:18.279Z,60.00
2017-09-12T17:01:45.513Z,60.20
2017-09-12T17:04:12.502Z,62.00
2017-09-12T17:06:39.395Z,61.50
2017-09-12T17:09:05.811Z,61.50
2017-09-12T17:11:31.974Z,60.10
2017-09-12T17:13:58.094Z,61.80
2017-09-12T17:16:24.268Z,60.50
2017-09-12T17:18:50.438Z,62.00
2017-09-12T17:21:16.587Z,64.10
2017-09-12T17:23:42.711Z,63.10
2017-09-12T17:26:08.811Z,61.40
2017-09-12T17:28:35.706Z,58.90
2017-09-12T17:31:01.864Z,58.90
2017-09-12T17:33:28.007Z,59.70
2017-09-12T17:35:55.572Z,60.10
2017-09-12T17:38:21.741Z,57.30
2017-09-12T17:40:48.604Z,59.10
2017-09-12T17:43:14.743Z,59.10
2017-09-12T17:45:40.890Z,58.30
2017-09-12T17:48:07.031Z,58.80
2017-09-12T17:50:33.163Z,61.10
2017-09-12T17:52:59.352Z,59.50
2017-09-12T17:55:25.495Z,60.30
2017-09-12T17:57:51.650Z,59.90
2017-09-12T18:00:17.777Z,59.80
2017-09-12T18:02:43.898Z,60.90
2017-09-12T18:05:10.035Z,61.20
2017-09-12T18:07:36.203Z,62.00
2017-09-12T18:10:03.378Z,62.10
2017-09-12T18:12:29.497Z,60.70
2017-09-12T18:14:55.635Z,60.50
2017-09-12T18:17:21.778Z,60.00
2017-09-12T18:19:47.915Z,60.50
2017-09-12T18:22:14.061Z,60.60
2017-09-12T18:24:40.337Z,60.00
2017-09-12T18:27:06.638Z,61.30
2017-09-12T18:29:33.011Z,60.60
2017-09-12T18:31:59.149Z,61.50
2017-09-12T18:34:25.295Z,60.20
2017-09-12T18:36:51.490Z,61.00
2017-09-12T18:39:17.626Z,60.50
2017-09-12T18:41:43.829Z,60.90
2017-09-12T18:44:10.008Z,60.40
2017-09-12T18:46:36.227Z,61.40
2017-09-12T18:49:03.076Z,61.00
2017-09-12T18:51:29.262Z,61.00
2017-09-12T18:53:55.387Z,61.20
2017-09-12T18:56:21.568Z,61.90
2017-09-12T18:58:48.588Z,62.60
2017-09-12T19:01:14.753Z,61.80
2017-09-12T19:03:40.879Z,61.70
2017-09-12T19:06:07.027Z,61.50
2017-09-12T19:08:33.163Z,61.00
2017-09-12T19:10:59.362Z,60.60
2017-09-12T19:13:26.230Z,61.40
2017-09-12T19:15:52.397Z,61.40
2017-09-12T19:18:18.567Z,61.30
2017-09-12T19:20:44.722Z,60.80
2017-09-12T19:23:10.887Z,60.80
2017-09-12T19:25:37.044Z,61.00
2017-09-12T19:28:03.191Z,60.80
2017-09-12T19:30:29.338Z,60.90
2017-09-12T19:32:55.648Z,60.70
2017-09-12T19:35:21.799Z,60.70
2017-09-12T19:37:47.966Z,60.20
2017-09-12T19:40:14.087Z,60.70
2017-09-12T19:42:40.252Z,60.90
2017-09-12T19:45:06.373Z,60.20
2017-09-12T19:47:32.558Z,60.80
2017-09-12T19:49:59.451Z,60.80
2017-09-12T19:52:25.606Z,60.80
2017-09-12T19:54:52.476Z,60.90
2017-09-12T19:57:18.634Z,61.70
2017-09-12T19:59:44.773Z,60.90
2017-09-12T20:02:10.947Z,61.00
2017-09-12T20:04:37.174Z,62.10
2017-09-12T20:07:04.094Z,61.70
2017-09-12T20:09:30.230Z,61.70
2017-09-12T20:11:57.122Z,61.30
2017-09-12T20:14:23.295Z,61.20
2017-09-12T20:16:49.530Z,61.70
2017-09-12T20:19:15.687Z,61.90
2017-09-12T20:21:42.642Z,61.70
2017-09-12T20:24:08.899Z,61.70
2017-09-12T20:26:35.034Z,61.50
2017-09-12T20:29:02.015Z,62.40
2017-09-12T20:31:28.152Z,62.40
2017-09-12T20:33:54.292Z,62.90
2017-09-12T20:36:21.174Z,61.80
2017-09-12T20:38:47.392Z,61.70
2017-09-12T20:41:13.551Z,61.70
2017-09-12T20:43:39.724Z,61.90
2017-09-12T20:46:06.156Z,61.70
2017-09-12T20:48:32.444Z,61.80
2017-09-12T20:50:58.598Z,61.90
2017-09-12T20:53:24.831Z,61.80
2017-09-12T20:55:51.047Z,62.80
2017-09-12T20:58:17.959Z,61.70
2017-09-12T21:00:44.861Z,61.60
2017-09-12T21:03:10.991Z,61.50
2017-09-12T21:05:37.155Z,62.70
2017-09-12T21:08:03.358Z,62.00
2017-09-12T21:10:29.509Z,60.70
2017-09-12T21:12:55.619Z,60.00
2017-09-12T21:15:21.766Z,59.90
2017-09-12T21:17:48.630Z,60.00
2017-09-12T21:20:14.767Z,59.90
2017-09-12T21:22:41.074Z,59.70
2017-09-12T21:25:07.995Z,60.20
2017-09-12T21:27:34.130Z,60.10
2017-09-12T21:30:00.274Z,61.00
2017-09-12T21:32:26.410Z,61.00
2017-09-12T21:34:52.537Z,60.90
2017-09-12T21:37:18.662Z,60.20
2017-09-12T21:39:44.803Z,60.20
2017-09-12T21:42:10.943Z,59.90
2017-09-12T21:44:37.068Z,59.90
2017-09-12T21:47:03.206Z,59.50
2017-09-12T21:49:29.340Z,59.70
2017-09-12T21:51:55.463Z,59.10
2017-09-12T21:54:21.610Z,59.80
2017-09-12T21:56:47.763Z,59.70
2017-09-12T21:59:13.910Z,59.70
2017-09-12T22:01:40.819Z,60.50
2017-09-12T22:04:06.937Z,60.40
2017-09-12T22:06:33.820Z,60.30
2017-09-12T22:09:00.011Z,60.30
2017-09-12T22:11:26.167Z,60.50
2017-09-12T22:13:52.290Z,60.30
2017-09-12T22:16:18.414Z,60.20
2017-09-12T22:18:44.538Z,60.30
2017-09-12T22:21:11.411Z,60.60
2017-09-12T22:23:37.556Z,60.60
2017-09-12T22:26:03.694Z,60.00
2017-09-12T22:28:29.829Z,59.40
2017-09-12T22:30:55.953Z,59.90
2017-09-12T22:33:22.083Z,59.70
2017-09-12T22:35:49.018Z,59.50
2017-09-12T22:38:15.146Z,59.40
2017-09-12T22:40:41.266Z,59.60
2017-09-12T22:43:08.136Z,59.70
2017-09-12T22:45:34.289Z,59.70
2017-09-12T22:48:00.448Z,59.70
2017-09-12T22:50:26.573Z,59.40
2017-09-12T22:52:52.742Z,59.80
2017-09-12T22:55:19.651Z,59.80
2017-09-12T22:57:45.781Z,59.80
2017-09-12T23:00:12.642Z,59.60
2017-09-12T23:02:38.770Z,59.50
2017-09-12T23:05:04.914Z,60.20
2017-09-12T23:07:31.026Z,59.90
2017-09-12T23:09:57.192Z,60.50
2017-09-12T23:12:24.047Z,60.00
2017-09-12T23:14:50.190Z,60.00
2017-09-12T23:17:16.310Z,60.90
2017-09-12T23:19:43.186Z,60.60
2017-09-12T23:22:09.342Z,60.50
2017-09-12T23:24:36.234Z,61.00
2017-09-12T23:27:02.345Z,61.00
2017-09-12T23:29:28.493Z,61.10
2017-09-12T23:31:55.360Z,60.50
2017-09-12T23:34:21.531Z,61.00
2017-09-12T23:36:47.638Z,61.10
2017-09-12T23:39:13.781Z,60.80
2017-09-12T23:41:39.924Z,61.10
2017-09-12T23:44:06.079Z,60.90
2017-09-12T23:46:32.207Z,60.80
2017-09-12T23:48:58.320Z,60.90
2017-09-12T23:51:24.480Z,61.60
2017-09-12T23:53:50.622Z,60.60
2017-09-12T23:56:16.767Z,60.60
2017-09-12T23:58:42.915Z,60.20
